LiveATC.Net - Listen to live air traffic control over the Internet!


ICAO: KMIC  IATA: MIC   Airport: Crystal Airport
City: Minneapolis   State/Province: Minnesota
Country: United States   Continent: North America
KMIC METAR Weather: KMIC 191953Z 04006G16KT 10SM FEW050 SCT060 24/11 A2977 RMK AO2 SLP078 T02390111
KMIC Flight Activity (FlightAware)
KMIC Airport Info   (iFlightPlanner)
KMIC VFR Sectional Chart   (iFlightPlanner) 
KMIC IFR Low Chart   (iFlightPlanner) 

KMIC Tower/CTAF
Feed Status: UP   Listeners: 0
Listen in your browser - HTML5 player (in browser, HTML5)
Click here to listen with your own player (launches your MP3 player)
KMIC Tower/CTAF Audio Archives
FacilityFrequency
Crystal Tower/CTAF120.700

NOTICE

Unauthorized use prohibited. See LiveATC.net Terms of Service


Find LiveATC Audio Streams


Airport/ARTCC Code

Frequency Search
(e.g., 124.400, 128.75)
Site-wide search
 


Browse LiveATC Feeds
Top 50 LiveATC Feeds
LiveATC Feed Map
Bad Weather Areas

LiveATC FAQ
Offer LiveATC feed
Contact LiveATC.net
Press Inquiries

LiveATC on iPhone
LiveATC on Android

Windows Phone
Windows 8/10

LiveATC Mobile
(Mobile browser)

ATC Audio Archives
Interesting Recordings

LiveATC Forums


Home Page
About LiveATC.net
Make a Donation
Terms of Use
Privacy Policy

Canadian Air Freqs

AIRMETs/SIGMETs

FAA Airport Status
Nat'l Airspace Status
Arrival Demand Charts


Server Software By:
Icecast.org
Liquidsoap